Aviation Digital Data Service (ADDS)

Output produced by METARs form (1702 UTC 20 January 2019)
found at http://www.aviationweather.gov/metar/data/
 
KIAD 201439Z 2015/2118 31019G33KT P6SM BKN030 
     FM201800 32022G40KT P6SM BKN035 
     FM210000 32016G27KT P6SM SCT035 
     FM211500 32020G35KT P6SM SCT035
       
KIAG 201618Z 2016/2112 35012G18KT 1SM -SN VV015 
     FM201800 34015G25KT 2SM -SN BKN015 
     FM202200 33012G18KT 4SM -SN BKN025 
     FM210000 32012KT 3SM -SHSN BKN025 
     FM210900 33012KT 6SM -SHSN BKN025
       
KIAH 201514Z 2015/2118 36013KT P6SM FEW250 
     FM201900 01006KT P6SM SCT250 
     FM210000 VRB03KT P6SM SCT250 
     FM211500 12008KT P6SM FEW015 SCT250
       
KICT 201128Z 2012/2112 19006KT P6SM SCT250 
     FM201800 19014G20KT P6SM FEW250 
     FM202300 15006KT P6SM SCT250 
     FM210300 12006KT P6SM FEW250
       
KIDA 201253Z 2013/2112 25008KT P6SM SCT030 OVC040 
     FM202100 20010G20KT P6SM VCSH BKN040 OVC050 
     FM210400 22010KT 6SM -RASN BR SCT015 BKN025 
     FM210800 22008KT 3SM -SN BR BKN008 OVC015
       
KIFP 201159Z 2012/2112 01006KT P6SM OVC250 
     FM202200 18007KT P6SM OVC250 
     FM210200 15008KT P6SM BKN250 AMD NOT SKED TIL 211500
       
KILG 201609Z 2016/2112 29018G28KT P6SM OVC015 
     TEMPO 2016/2018 SCT015 OVC035 
     FM201800 31020G30KT P6SM BKN040
       
KILM 201457Z 2015/2112 26012G22KT P6SM SCT025 BKN120 
     TEMPO 2015/2017 BKN025 
     FM201800 28016G25KT P6SM VCSH BKN050 
     FM202100 31017G25KT P6SM SCT030 
     FM210500 32012KT P6SM SKC
       
KILN 201505Z 2015/2112 34015KT 5SM HZ BKN018 
     FM201600 34015KT P6SM SCT020 SCT200 
     FM202000 33011KT P6SM SCT200 
     FM210400 33007KT P6SM SKC
       
KIND 201413Z 2014/2118 35012KT P6SM SCT025 BKN100 
     FM202100 32006KT P6SM BKN040 
     FM210400 32005KT P6SM SCT100
       
KINT 201126Z 2012/2112 27008G14KT P6SM BKN050 
     TEMPO 2012/2013 BKN020 OVC050 
     FM201400 31013G27KT P6SM SCT110 
     FM201600 31015G30KT P6SM SCT060 
     FM210200 33012G20KT P6SM SKC
       
KINW 201127Z 2012/2112 VRB05KT P6SM SCT250 
     FM210600 19010KT P6SM BKN250 
     FM210900 19016G23KT P6SM BKN250
       
KIPL 201120Z 2012/2112 26005KT P6SM FEW250 
     FM201700 VRB03KT P6SM FEW250 
     FM210200 27005KT P6SM BKN250 
     FM210900 26014G20KT P6SM SCT250
       
KIPT 201540Z 2016/2112 31018G28KT P6SM BKN025 OVC035 
     FM201900 30020G30KT P6SM SCT025 BKN050
       
KISM 201146Z 2012/2112 27012KT P6SM SCT010 SCT025 BKN040 
     TEMPO 2012/2013 BKN025 
     FM201500 27022G29KT P6SM SCT035 SCT200 
     FM202300 29011KT P6SM SKC 
     FM210500 32009KT P6SM SKC
       
KISN 201507Z 2015/2112 13007KT P6SM -SN OVC010 
     TEMPO 2015/2017 2SM -SN OVC008 
     FM202000 14008KT P6SM BKN020 OVC040 
     FM202200 12006KT P6SM BKN045 
     FM210400 11005KT P6SM OVC025 
     FM210800 10006KT 2SM -SN OVC010
       
KISO 201144Z 2012/2112 22014G24KT P6SM -SHRA SCT006 OVC015 
     FM201300 23014G22KT P6SM VCSH SCT006 OVC025 
     FM201500 26015G24KT P6SM VCSH BKN035 
     TEMPO 2015/2018 BKN025 
     FM202000 31018G29KT P6SM VCSH BKN120 AMD LTD TO CLD VIS AND WIND
       
KISP 201430Z 2015/2112 09010KT 6SM -RA BR BKN006 BKN020 WS020/19050KT 
     FM201700 28014KT 6SM -RA BR OVC008 
     FM201900 30014KT P6SM SCT009 BKN015 
     FM202100 32016G25KT P6SM SCT015 BKN025 
     FM202300 32018G27KT P6SM BKN040 
     FM210100 32021G32KT P6SM FEW250
       
KITH 201144Z 2012/2112 33010G17KT 3/4SM -SN OVC011 
     FM201400 33015G25KT 1/2SM SN BLSN OVC009 
     FM201900 32017G31KT 2SM -SN BLSN OVC014 
     FM210000 32015G27KT 3SM -SN BLSN OVC020 
     FM210600 32015G27KT 2SM -SN BLSN OVC018
       
KIWA 201120Z 2012/2112 12005KT P6SM FEW250 
     FM202200 27004KT P6SM SCT250 
     FM210200 11004KT P6SM BKN250 
     FM210900 12009KT P6SM SCT250
       
KIXD 201120Z 2012/2112 36007KT P6SM SKC 
     FM201400 14007KT P6SM SCT120 
     FM202000 09006KT P6SM BKN120